createdAt,value
2022-10-19T00:01:18.766Z,93.06
2022-10-19T00:06:25.034Z,92.62
2022-10-19T00:08:54.251Z,92.26
2022-10-19T00:11:23.558Z,92.22
2022-10-19T00:13:52.651Z,91.99
2022-10-19T00:16:24.943Z,91.56
2022-10-19T00:18:57.286Z,91.54
2022-10-19T00:21:25.985Z,91.34
2022-10-19T00:23:54.844Z,90.89
2022-10-19T00:26:23.817Z,90.54
2022-10-19T00:28:54.006Z,90.27
2022-10-19T00:31:22.614Z,90.32
2022-10-19T00:33:51.542Z,90.10
2022-10-19T00:36:21.634Z,90.07
2022-10-19T00:38:50.565Z,90.13
2022-10-19T00:41:20.114Z,90.00
2022-10-19T00:43:57.350Z,89.93
2022-10-19T00:46:26.957Z,90.15
2022-10-19T00:49:00.277Z,89.91
2022-10-19T00:51:30.318Z,89.96
2022-10-19T00:53:59.029Z,90.01
2022-10-19T00:56:27.630Z,89.84
2022-10-19T00:58:56.319Z,89.86
2022-10-19T01:01:26.070Z,89.90
2022-10-19T01:03:54.538Z,89.50
2022-10-19T01:06:25.515Z,89.80
2022-10-19T01:08:54.196Z,89.71
2022-10-19T01:11:45.151Z,89.67
2022-10-19T01:14:25.419Z,89.91
2022-10-19T01:17:01.995Z,89.76
2022-10-19T01:19:49.796Z,89.92
2022-10-19T01:22:27.703Z,90.04
2022-10-19T01:25:02.017Z,89.96
2022-10-19T01:27:44.722Z,90.00
2022-10-19T01:30:16.866Z,90.58
2022-10-19T01:33:03.965Z,90.62
2022-10-19T01:35:36.027Z,90.28
2022-10-19T01:38:15.944Z,90.60
2022-10-19T01:40:51.367Z,90.60
2022-10-19T01:43:25.441Z,90.81
2022-10-19T01:45:53.573Z,90.72
2022-10-19T01:48:25.553Z,90.76
2022-10-19T01:50:57.631Z,90.78
2022-10-19T01:53:27.819Z,90.58
2022-10-19T01:55:56.562Z,90.57
2022-10-19T01:58:28.545Z,90.41
2022-10-19T02:01:00.128Z,90.39
2022-10-19T02:03:29.488Z,90.45
2022-10-19T02:05:59.009Z,90.26
2022-10-19T02:08:30.627Z,90.36
2022-10-19T02:10:59.724Z,90.46
2022-10-19T02:13:29.126Z,90.19
2022-10-19T02:15:59.784Z,90.56
2022-10-19T02:18:30.944Z,90.61
2022-10-19T02:21:01.273Z,90.47
2022-10-19T02:23:29.927Z,90.80
2022-10-19T02:25:58.734Z,90.44
2022-10-19T02:28:27.646Z,90.35
2022-10-19T02:30:56.133Z,89.98
2022-10-19T02:33:24.720Z,89.94
2022-10-19T02:35:53.283Z,89.92
2022-10-19T02:38:23.305Z,89.63
2022-10-19T02:40:57.601Z,89.72
2022-10-19T02:43:27.201Z,89.65
2022-10-19T02:45:59.209Z,89.21
2022-10-19T02:48:29.657Z,89.23
2022-10-19T02:50:57.994Z,89.62
2022-10-19T02:53:26.398Z,89.27
2022-10-19T02:55:54.732Z,89.41
2022-10-19T02:58:23.114Z,89.81
2022-10-19T03:00:51.558Z,89.65
2022-10-19T03:03:19.869Z,89.70
2022-10-19T03:05:48.202Z,89.71
2022-10-19T03:08:16.576Z,90.03
2022-10-19T03:10:47.369Z,90.19
2022-10-19T03:13:15.739Z,90.40
2022-10-19T03:15:44.114Z,90.53
2022-10-19T03:18:12.656Z,90.33
2022-10-19T03:20:41.128Z,90.43
2022-10-19T03:23:09.587Z,90.44
2022-10-19T03:25:37.913Z,90.60
2022-10-19T03:28:06.198Z,90.73
2022-10-19T03:30:34.502Z,90.70
2022-10-19T03:33:02.796Z,90.72
2022-10-19T03:35:31.162Z,90.52
2022-10-19T03:37:59.655Z,90.31
2022-10-19T03:40:28.361Z,90.78
2022-10-19T03:42:56.634Z,90.75
2022-10-19T03:45:24.962Z,90.72
2022-10-19T03:47:53.462Z,91.24
2022-10-19T03:50:22.008Z,91.35
2022-10-19T03:52:50.503Z,91.41
2022-10-19T03:55:19.087Z,91.19
2022-10-19T03:57:47.313Z,91.47
2022-10-19T04:00:16.735Z,91.16
2022-10-19T04:02:45.081Z,91.01
2022-10-19T04:05:13.491Z,90.71
2022-10-19T04:07:42.118Z,90.56
2022-10-19T04:10:11.076Z,90.47
2022-10-19T04:12:39.413Z,90.74
2022-10-19T04:15:10.001Z,90.29
2022-10-19T04:17:38.265Z,90.44
2022-10-19T04:20:09.219Z,90.17
2022-10-19T04:22:37.502Z,90.15
2022-10-19T04:25:08.822Z,90.08
2022-10-19T04:27:37.340Z,89.94
2022-10-19T04:30:08.119Z,89.91
2022-10-19T04:32:36.542Z,89.93
2022-10-19T04:35:07.379Z,89.61
2022-10-19T04:37:36.200Z,89.70
2022-10-19T04:40:11.495Z,89.33
2022-10-19T04:42:43.450Z,89.10
2022-10-19T04:45:12.922Z,89.19
2022-10-19T04:47:41.202Z,88.97
2022-10-19T04:50:10.727Z,88.71
2022-10-19T04:52:39.222Z,88.83
2022-10-19T04:55:08.627Z,88.59
2022-10-19T04:57:37.191Z,88.35
2022-10-19T05:00:08.680Z,88.26
2022-10-19T05:02:37.160Z,88.08
2022-10-19T05:05:07.639Z,87.95
2022-10-19T05:07:36.405Z,88.09
2022-10-19T05:10:06.481Z,88.13
2022-10-19T05:12:36.056Z,88.17
2022-10-19T05:15:05.717Z,87.95
2022-10-19T05:17:34.644Z,88.03
2022-10-19T05:20:03.505Z,87.81
2022-10-19T05:22:31.982Z,87.63
2022-10-19T05:25:00.242Z,87.82
2022-10-19T05:27:28.874Z,87.63
2022-10-19T05:29:57.439Z,87.61
2022-10-19T05:32:26.762Z,87.24
2022-10-19T05:34:55.776Z,87.10
2022-10-19T05:37:25.254Z,87.18
2022-10-19T05:39:55.413Z,87.00
2022-10-19T05:42:23.895Z,86.88
2022-10-19T05:44:52.411Z,86.50
2022-10-19T05:47:20.732Z,86.26
2022-10-19T05:49:49.484Z,86.44
2022-10-19T05:52:18.034Z,86.05
2022-10-19T05:54:46.399Z,86.15
2022-10-19T05:57:14.913Z,86.15
2022-10-19T05:59:43.285Z,86.11
2022-10-19T06:02:14.819Z,85.99
2022-10-19T06:04:43.196Z,85.93
2022-10-19T06:07:11.521Z,85.88
2022-10-19T06:09:39.907Z,85.63
2022-10-19T06:12:08.657Z,85.46
2022-10-19T06:14:37.002Z,85.33
2022-10-19T06:17:06.188Z,85.31
2022-10-19T06:19:34.691Z,85.31
2022-10-19T06:22:03.010Z,85.22
2022-10-19T06:24:31.691Z,85.20
2022-10-19T06:27:00.094Z,85.07
2022-10-19T06:29:28.674Z,85.03
2022-10-19T06:31:59.623Z,84.80
2022-10-19T06:34:27.959Z,84.89
2022-10-19T06:36:56.619Z,85.20
2022-10-19T06:39:24.933Z,85.42
2022-10-19T06:41:53.357Z,85.29
2022-10-19T06:44:21.985Z,85.31
2022-10-19T06:46:50.552Z,85.41
2022-10-19T06:49:19.152Z,85.46
2022-10-19T06:51:47.529Z,85.65
2022-10-19T06:54:15.890Z,85.59
2022-10-19T06:56:44.355Z,85.26
2022-10-19T06:59:14.740Z,85.49
2022-10-19T07:01:43.799Z,85.66
2022-10-19T07:04:12.226Z,85.98
2022-10-19T07:06:40.919Z,86.05
2022-10-19T07:09:09.369Z,86.13
2022-10-19T07:11:38.882Z,86.18
2022-10-19T07:14:10.136Z,85.88
2022-10-19T07:16:38.597Z,85.94
2022-10-19T07:19:07.296Z,86.19
2022-10-19T07:21:41.379Z,85.72
2022-10-19T07:24:08.792Z,85.08
2022-10-19T07:26:37.349Z,85.35
2022-10-19T07:29:05.771Z,85.46
2022-10-19T07:31:34.339Z,85.55
2022-10-19T07:34:04.339Z,85.61
2022-10-19T07:36:34.699Z,85.67
2022-10-19T07:39:04.877Z,85.38
2022-10-19T07:41:34.139Z,84.95
2022-10-19T07:44:03.280Z,84.18
2022-10-19T07:46:33.389Z,84.28
2022-10-19T07:49:02.587Z,84.23
2022-10-19T07:51:31.053Z,84.37
2022-10-19T07:53:59.638Z,84.04
2022-10-19T07:56:28.585Z,83.99
2022-10-19T07:58:58.395Z,83.88
2022-10-19T08:01:28.578Z,84.10
2022-10-19T08:04:48.997Z,83.69
2022-10-19T08:06:47.603Z,83.94
2022-10-19T08:09:40.210Z,83.97
2022-10-19T08:12:12.349Z,83.58
2022-10-19T08:14:43.663Z,83.82
2022-10-19T08:17:16.003Z,83.60
2022-10-19T08:19:44.723Z,83.85
2022-10-19T08:22:13.393Z,83.61
2022-10-19T08:24:42.151Z,83.41
2022-10-19T08:27:10.835Z,83.13
2022-10-19T08:29:39.342Z,83.22
2022-10-19T08:32:07.790Z,83.17
2022-10-19T08:34:36.412Z,83.27
2022-10-19T08:37:14.638Z,83.64
2022-10-19T08:39:53.546Z,84.16
2022-10-19T08:42:24.793Z,84.58
2022-10-19T08:45:37.845Z,84.87
2022-10-19T08:48:20.515Z,85.48
2022-10-19T08:50:49.658Z,85.57
2022-10-19T08:53:24.312Z,85.97
2022-10-19T08:56:04.572Z,85.85
2022-10-19T08:58:46.139Z,86.11
2022-10-19T09:01:20.682Z,86.37
2022-10-19T09:03:55.856Z,86.22
2022-10-19T09:06:27.853Z,86.28
2022-10-19T09:08:57.647Z,86.23
2022-10-19T09:11:30.557Z,86.13
2022-10-19T09:14:06.117Z,85.87
2022-10-19T09:16:35.033Z,85.78
2022-10-19T09:19:05.553Z,85.58
2022-10-19T09:21:47.063Z,85.66
2022-10-19T09:24:28.459Z,85.75
2022-10-19T09:26:59.635Z,86.03
2022-10-19T09:29:31.480Z,86.17
2022-10-19T09:32:01.593Z,86.21
2022-10-19T09:34:33.632Z,86.31
2022-10-19T09:37:02.091Z,86.11
2022-10-19T09:39:31.477Z,86.15
2022-10-19T09:42:05.141Z,86.09
2022-10-19T09:44:33.637Z,85.90
2022-10-19T09:47:15.695Z,85.64
2022-10-19T09:49:45.612Z,84.81
2022-10-19T09:52:27.658Z,84.37
2022-10-19T09:55:02.490Z,84.32
2022-10-19T09:57:31.476Z,84.51
2022-10-19T10:00:00.557Z,84.27
2022-10-19T10:02:33.578Z,82.46
2022-10-19T10:05:07.232Z,78.54
2022-10-19T10:07:37.602Z,77.79
2022-10-19T10:10:15.253Z,77.88
2022-10-19T10:12:44.336Z,78.29
2022-10-19T10:15:17.643Z,79.77
2022-10-19T10:17:51.392Z,80.91
2022-10-19T10:20:23.666Z,81.46
2022-10-19T10:23:01.999Z,82.09
2022-10-19T10:25:32.672Z,82.90
2022-10-19T10:28:04.363Z,83.75
2022-10-19T10:30:35.809Z,83.96
2022-10-19T10:33:13.449Z,84.17
2022-10-19T10:35:57.475Z,85.07
2022-10-19T10:38:28.331Z,84.34
2022-10-19T10:41:00.316Z,84.62
2022-10-19T10:43:32.176Z,84.85
2022-10-19T10:46:06.947Z,84.37
2022-10-19T10:48:39.041Z,84.16
2022-10-19T10:51:20.237Z,83.37
2022-10-19T10:53:49.553Z,83.48
2022-10-19T10:56:25.061Z,83.05
2022-10-19T10:58:58.717Z,82.80
2022-10-19T11:01:32.041Z,81.44
2022-10-19T11:04:04.730Z,80.62
2022-10-19T11:06:39.546Z,80.53
2022-10-19T11:09:26.107Z,80.68
2022-10-19T11:11:56.973Z,80.00
2022-10-19T11:14:32.721Z,79.78
2022-10-19T11:17:06.217Z,80.06
2022-10-19T11:19:37.553Z,80.01
2022-10-19T11:22:16.430Z,79.83
2022-10-19T11:24:55.227Z,77.74
2022-10-19T11:27:34.559Z,75.96
2022-10-19T11:30:10.202Z,75.02
2022-10-19T11:32:48.927Z,75.41
2022-10-19T11:35:42.209Z,75.00
2022-10-19T11:38:28.715Z,75.14
2022-10-19T11:41:22.339Z,76.13
2022-10-19T11:44:10.915Z,75.31
2022-10-19T11:46:45.161Z,76.42
2022-10-19T11:49:22.022Z,74.97
2022-10-19T11:51:57.228Z,73.66
2022-10-19T11:54:38.605Z,72.45
2022-10-19T11:57:13.660Z,73.69
2022-10-19T11:59:52.395Z,72.92
2022-10-19T12:02:38.887Z,72.87
2022-10-19T12:05:07.777Z,72.13
2022-10-19T12:07:53.516Z,69.84
2022-10-19T12:10:27.681Z,69.47
2022-10-19T12:12:58.391Z,70.37
2022-10-19T12:15:30.790Z,69.36
2022-10-19T12:18:05.218Z,69.41
2022-10-19T12:20:37.640Z,66.77
2022-10-19T12:23:17.337Z,66.10
2022-10-19T12:25:46.641Z,66.94
2022-10-19T12:28:21.192Z,67.16
2022-10-19T12:30:50.056Z,67.56
2022-10-19T12:33:22.841Z,67.92
2022-10-19T12:35:58.255Z,67.65
2022-10-19T12:38:40.984Z,65.72
2022-10-19T12:41:20.550Z,65.23
2022-10-19T12:43:59.006Z,64.23
2022-10-19T12:46:33.832Z,64.59
2022-10-19T12:49:43.361Z,64.79
2022-10-19T12:52:12.182Z,63.99
2022-10-19T12:54:42.519Z,62.91
2022-10-19T12:57:26.098Z,61.97
2022-10-19T13:00:04.831Z,61.39
2022-10-19T13:02:35.741Z,61.40
2022-10-19T13:05:05.965Z,62.32
2022-10-19T13:07:35.958Z,62.61
2022-10-19T13:10:09.036Z,61.72
2022-10-19T13:12:45.083Z,61.50
2022-10-19T13:15:55.148Z,59.39
2022-10-19T13:19:07.160Z,59.12
2022-10-19T13:21:49.288Z,60.34
2022-10-19T13:24:36.528Z,58.21
2022-10-19T13:27:38.179Z,57.11
2022-10-19T13:30:45.552Z,57.45
2022-10-19T13:33:42.671Z,59.38
2022-10-19T13:36:11.710Z,61.32
2022-10-19T13:38:40.672Z,61.26
2022-10-19T13:41:16.090Z,61.81
2022-10-19T13:44:03.295Z,62.54
2022-10-19T13:46:53.947Z,63.36
2022-10-19T13:49:36.355Z,63.97
2022-10-19T13:52:22.727Z,64.66
2022-10-19T13:55:08.762Z,64.58
2022-10-19T13:57:50.170Z,65.21
2022-10-19T14:00:22.726Z,65.41
2022-10-19T14:03:03.604Z,65.66
2022-10-19T14:05:56.059Z,65.78
2022-10-19T14:09:01.625Z,64.96
2022-10-19T14:11:33.190Z,65.80
2022-10-19T14:14:16.626Z,65.70
2022-10-19T14:16:57.220Z,66.15
2022-10-19T14:19:30.775Z,66.36
2022-10-19T14:22:18.593Z,66.92
2022-10-19T14:24:48.820Z,67.39
2022-10-19T14:27:19.274Z,67.66
2022-10-19T14:29:50.267Z,67.82
2022-10-19T14:32:21.048Z,68.33
2022-10-19T14:34:49.835Z,68.32
2022-10-19T14:37:20.370Z,68.37
2022-10-19T14:40:00.669Z,67.78
2022-10-19T14:42:40.977Z,67.55
2022-10-19T14:45:18.346Z,66.42
2022-10-19T14:48:01.399Z,66.59
2022-10-19T14:53:30.194Z,66.46
2022-10-19T14:56:01.290Z,66.68
2022-10-19T14:58:37.415Z,67.44
2022-10-19T15:01:06.813Z,67.02
2022-10-19T15:03:36.618Z,67.49
2022-10-19T15:06:08.491Z,67.85
2022-10-19T15:08:41.834Z,67.81
2022-10-19T15:11:22.849Z,67.99
2022-10-19T15:13:58.637Z,67.97
2022-10-19T15:16:32.543Z,66.89
2022-10-19T15:19:07.610Z,66.15
2022-10-19T15:21:36.769Z,66.55
2022-10-19T15:24:15.867Z,66.48
2022-10-19T15:27:01.762Z,66.69
2022-10-19T15:29:37.039Z,66.81
2022-10-19T15:32:18.403Z,66.79
2022-10-19T15:34:47.235Z,67.00
2022-10-19T15:37:20.488Z,66.20
2022-10-19T15:39:52.271Z,66.67
2022-10-19T15:42:33.685Z,66.59
2022-10-19T15:45:05.068Z,66.30
2022-10-19T15:47:34.446Z,66.14
2022-10-19T15:50:03.406Z,65.91
2022-10-19T15:52:34.029Z,65.93
2022-10-19T15:55:04.693Z,65.93
2022-10-19T15:57:35.255Z,66.12
2022-10-19T16:00:12.767Z,66.31
2022-10-19T16:02:41.222Z,66.35
2022-10-19T16:05:10.797Z,65.74
2022-10-19T16:07:41.004Z,65.73
2022-10-19T16:10:15.395Z,65.79
2022-10-19T16:12:44.403Z,65.79
2022-10-19T16:15:15.795Z,65.40
2022-10-19T16:17:44.796Z,65.75
2022-10-19T16:20:13.832Z,65.94
2022-10-19T16:22:42.630Z,66.15
2022-10-19T16:25:13.619Z,66.28
2022-10-19T16:27:42.274Z,65.86
2022-10-19T16:30:12.946Z,66.04
2022-10-19T16:35:12.412Z,66.45
2022-10-19T16:37:40.798Z,66.81
2022-10-19T16:40:11.384Z,66.66
2022-10-19T16:42:40.465Z,66.97
2022-10-19T16:45:12.993Z,66.97
2022-10-19T16:47:46.630Z,67.25
2022-10-19T16:50:15.225Z,67.32
2022-10-19T16:52:45.446Z,67.38
2022-10-19T16:55:14.333Z,67.76
2022-10-19T16:57:45.008Z,67.88
2022-10-19T17:00:17.912Z,67.97
2022-10-19T17:02:47.863Z,68.31
2022-10-19T17:05:17.468Z,68.41
2022-10-19T17:07:46.044Z,68.38
2022-10-19T17:10:16.271Z,68.89
2022-10-19T17:12:44.876Z,68.74
2022-10-19T17:18:02.662Z,69.30
2022-10-19T17:20:33.023Z,69.64
2022-10-19T17:23:04.303Z,69.82
2022-10-19T17:25:32.745Z,70.04
2022-10-19T17:28:01.278Z,70.22
2022-10-19T17:30:29.691Z,70.44
2022-10-19T17:32:58.094Z,70.88
2022-10-19T17:35:26.762Z,70.78
2022-10-19T17:37:55.375Z,70.71
2022-10-19T17:40:23.810Z,70.87
2022-10-19T17:42:52.329Z,71.10
2022-10-19T17:45:20.715Z,71.12
2022-10-19T17:47:49.138Z,71.18
2022-10-19T17:50:17.880Z,71.27
2022-10-19T17:52:46.523Z,71.32
2022-10-19T17:55:15.203Z,71.56
2022-10-19T17:57:44.505Z,71.86
2022-10-19T18:00:17.672Z,71.77
2022-10-19T18:02:47.081Z,71.78
2022-10-19T18:05:16.712Z,71.90
2022-10-19T18:07:45.503Z,71.95
2022-10-19T18:10:17.831Z,71.91
2022-10-19T18:12:49.117Z,72.28
2022-10-19T18:15:18.538Z,72.34
2022-10-19T18:17:57.156Z,72.48
2022-10-19T18:20:28.194Z,72.76
2022-10-19T18:22:57.020Z,72.83
2022-10-19T18:25:42.168Z,72.86
2022-10-19T18:28:14.467Z,72.89
2022-10-19T18:30:45.138Z,73.04
2022-10-19T18:33:16.511Z,73.05
2022-10-19T18:35:45.260Z,73.37
2022-10-19T18:38:13.881Z,73.25
2022-10-19T18:40:42.802Z,73.32
2022-10-19T18:43:11.154Z,73.86
2022-10-19T18:45:39.519Z,73.69
2022-10-19T18:48:08.731Z,73.83
2022-10-19T18:50:42.473Z,73.87
2022-10-19T18:53:11.166Z,73.99
2022-10-19T18:55:39.637Z,74.09
2022-10-19T18:58:08.503Z,74.48
2022-10-19T19:00:43.441Z,74.23
2022-10-19T19:03:18.270Z,74.54
2022-10-19T19:05:49.540Z,74.76
2022-10-19T19:08:18.576Z,74.75
2022-10-19T19:10:48.022Z,74.64
2022-10-19T19:13:17.040Z,74.70
2022-10-19T19:15:45.890Z,75.19
2022-10-19T19:18:14.926Z,74.93
2022-10-19T19:20:44.470Z,75.30
2022-10-19T19:23:14.359Z,75.42
2022-10-19T19:25:42.979Z,75.26
2022-10-19T19:28:11.361Z,75.47
2022-10-19T19:30:42.897Z,75.87
2022-10-19T19:33:14.241Z,76.03
2022-10-19T19:35:47.588Z,76.27
2022-10-19T19:38:16.485Z,76.18
2022-10-19T19:40:46.750Z,76.44
2022-10-19T19:43:17.339Z,76.47
2022-10-19T19:45:57.369Z,76.20
2022-10-19T19:48:26.706Z,76.28
2022-10-19T19:50:56.086Z,76.60
2022-10-19T19:53:27.746Z,76.53
2022-10-19T19:55:56.696Z,76.31
2022-10-19T19:58:26.426Z,76.53
2022-10-19T20:00:55.271Z,76.68
2022-10-19T20:03:26.097Z,76.83
2022-10-19T20:06:02.782Z,76.54
2022-10-19T20:08:32.266Z,76.99
2022-10-19T20:11:04.203Z,77.24
2022-10-19T20:13:33.398Z,77.22
2022-10-19T20:16:09.641Z,77.27
2022-10-19T20:18:38.896Z,77.37
2022-10-19T20:21:07.481Z,77.71
2022-10-19T20:23:36.359Z,77.58
2022-10-19T20:26:08.584Z,77.07
2022-10-19T20:28:37.131Z,77.73
2022-10-19T20:31:08.475Z,78.19
2022-10-19T20:33:39.176Z,78.31
2022-10-19T20:36:09.637Z,78.28
2022-10-19T20:38:39.137Z,78.26
2022-10-19T20:41:09.176Z,79.07
2022-10-19T20:43:40.681Z,79.01
2022-10-19T20:46:17.774Z,79.48
2022-10-19T20:48:46.911Z,79.82
2022-10-19T20:51:16.973Z,79.72
2022-10-19T20:53:47.939Z,79.81
2022-10-19T20:56:18.133Z,80.00
2022-10-19T20:58:46.642Z,80.42
2022-10-19T21:01:24.322Z,80.71
2022-10-19T21:03:55.001Z,80.22
2022-10-19T21:06:25.752Z,80.78
2022-10-19T21:08:54.778Z,80.86
2022-10-19T21:11:26.323Z,80.63
2022-10-19T21:13:56.695Z,80.66
2022-10-19T21:16:32.991Z,80.88
2022-10-19T21:19:07.414Z,80.96
2022-10-19T21:21:41.642Z,81.72
2022-10-19T21:24:13.847Z,81.48
2022-10-19T21:26:42.789Z,81.98
2022-10-19T21:29:13.967Z,82.33
2022-10-19T21:31:49.115Z,81.87
2022-10-19T21:34:21.442Z,82.34
2022-10-19T21:36:51.027Z,82.56
2022-10-19T21:39:22.942Z,82.46
2022-10-19T21:41:52.824Z,81.84
2022-10-19T21:44:25.570Z,81.76
2022-10-19T21:46:54.182Z,81.95
2022-10-19T21:49:22.932Z,82.51
2022-10-19T21:51:53.786Z,82.83
2022-10-19T21:54:25.014Z,82.71
2022-10-19T21:56:55.225Z,82.92
2022-10-19T21:59:24.192Z,82.59
2022-10-19T22:01:53.989Z,82.88
2022-10-19T22:04:24.327Z,83.05
2022-10-19T22:06:52.831Z,82.55
2022-10-19T22:09:23.175Z,82.83
2022-10-19T22:11:51.774Z,83.11
2022-10-19T22:14:20.488Z,82.73
2022-10-19T22:16:49.559Z,83.29
2022-10-19T22:19:20.943Z,83.37
2022-10-19T22:21:49.874Z,83.47
2022-10-19T22:24:18.355Z,83.78
2022-10-19T22:26:50.209Z,83.58
2022-10-19T22:29:18.911Z,84.11
2022-10-19T22:31:47.243Z,83.81
2022-10-19T22:34:18.259Z,83.68
2022-10-19T22:36:50.476Z,83.76
2022-10-19T22:39:19.602Z,84.71
2022-10-19T22:42:42.635Z,84.75
2022-10-19T22:45:11.819Z,84.31
2022-10-19T22:47:40.572Z,84.22
2022-10-19T22:50:12.015Z,84.13
2022-10-19T22:52:46.182Z,84.07
2022-10-19T22:55:14.290Z,83.71
2022-10-19T22:57:42.939Z,84.44
2022-10-19T23:00:13.294Z,84.22
2022-10-19T23:02:41.667Z,84.43
2022-10-19T23:05:10.718Z,84.42
2022-10-19T23:07:39.220Z,84.34
2022-10-19T23:10:08.970Z,84.53
2022-10-19T23:12:38.267Z,84.48
2022-10-19T23:15:09.134Z,84.94
2022-10-19T23:17:37.972Z,85.23
2022-10-19T23:20:08.938Z,85.25
2022-10-19T23:22:37.200Z,85.50
2022-10-19T23:25:09.715Z,85.76
2022-10-19T23:27:38.706Z,85.61
2022-10-19T23:30:09.128Z,85.49
2022-10-19T23:32:37.452Z,86.00
2022-10-19T23:35:10.441Z,85.75
2022-10-19T23:37:39.004Z,85.75
2022-10-19T23:40:09.844Z,85.88
2022-10-19T23:42:38.287Z,85.71
2022-10-19T23:45:08.589Z,85.73
2022-10-19T23:47:37.441Z,85.73
2022-10-19T23:50:08.269Z,85.77
2022-10-19T23:52:36.707Z,85.77
2022-10-19T23:55:09.654Z,86.38
2022-10-19T23:57:38.257Z,85.80
